sensor_id;sensor_type;location;lat;lon;timestamp;pressure;altitude;pressure_sealevel;temperature;humidity
60589;BME280;46421;48.610;9.334;2022-10-29T00:01:40;98775.44;;;11.22;100.00
60589;BME280;46421;48.610;9.334;2022-10-29T00:04:05;98778.63;;;11.43;100.00
60589;BME280;46421;48.610;9.334;2022-10-29T00:06:31;98784.78;;;11.27;100.00
60589;BME280;46421;48.610;9.334;2022-10-29T00:08:56;98777.56;;;11.11;100.00
60589;BME280;46421;48.610;9.334;2022-10-29T00:11:22;98775.09;;;11.17;100.00
60589;BME280;46421;48.610;9.334;2022-10-29T00:13:52;98776.09;;;11.16;100.00
60589;BME280;46421;48.610;9.334;2022-10-29T00:16:20;98773.97;;;11.36;100.00
60589;BME280;46421;48.610;9.334;2022-10-29T00:18:46;98780.16;;;11.70;100.00
60589;BME280;46421;48.610;9.334;2022-10-29T00:21:14;98785.66;;;11.60;100.00
60589;BME280;46421;48.610;9.334;2022-10-29T00:23:41;98786.78;;;11.33;100.00
60589;BME280;46421;48.610;9.334;2022-10-29T00:26:06;98786.03;;;11.14;100.00
60589;BME280;46421;48.610;9.334;2022-10-29T00:28:32;98781.22;;;11.18;100.00
60589;BME280;46421;48.610;9.334;2022-10-29T00:31:02;98777.63;;;11.35;100.00
60589;BME280;46421;48.610;9.334;2022-10-29T00:33:27;98783.00;;;11.60;100.00
60589;BME280;46421;48.610;9.334;2022-10-29T00:35:57;98785.44;;;11.37;100.00
60589;BME280;46421;48.610;9.334;2022-10-29T00:38:23;98784.41;;;11.21;100.00
60589;BME280;46421;48.610;9.334;2022-10-29T00:40:48;98776.78;;;11.43;100.00
60589;BME280;46421;48.610;9.334;2022-10-29T00:43:15;98786.34;;;11.03;100.00
60589;BME280;46421;48.610;9.334;2022-10-29T00:45:45;98779.03;;;10.62;100.00
60589;BME280;46421;48.610;9.334;2022-10-29T00:48:12;98768.72;;;10.59;100.00
60589;BME280;46421;48.610;9.334;2022-10-29T00:50:38;98767.34;;;10.55;100.00
60589;BME280;46421;48.610;9.334;2022-10-29T00:53:03;98777.69;;;10.58;100.00
60589;BME280;46421;48.610;9.334;2022-10-29T00:55:29;98773.91;;;10.69;100.00
60589;BME280;46421;48.610;9.334;2022-10-29T00:57:55;98773.69;;;10.88;100.00
60589;BME280;46421;48.610;9.334;2022-10-29T01:00:22;98771.97;;;10.79;100.00
60589;BME280;46421;48.610;9.334;2022-10-29T01:02:47;98781.66;;;10.88;100.00
60589;BME280;46421;48.610;9.334;2022-10-29T01:05:16;98786.16;;;10.96;100.00
60589;BME280;46421;48.610;9.334;2022-10-29T01:07:44;98783.03;;;11.01;100.00
60589;BME280;46421;48.610;9.334;2022-10-29T01:10:10;98778.66;;;10.91;100.00
60589;BME280;46421;48.610;9.334;2022-10-29T01:13:06;98781.47;;;11.49;100.00
60589;BME280;46421;48.610;9.334;2022-10-29T01:15:45;98777.66;;;11.60;100.00
60589;BME280;46421;48.610;9.334;2022-10-29T01:18:20;98777.19;;;11.73;100.00
60589;BME280;46421;48.610;9.334;2022-10-29T01:24:02;98770.78;;;11.25;100.00
60589;BME280;46421;48.610;9.334;2022-10-29T01:27:14;98754.47;;;11.28;100.00
60589;BME280;46421;48.610;9.334;2022-10-29T01:30:04;98764.09;;;11.20;100.00
60589;BME280;46421;48.610;9.334;2022-10-29T01:40:54;98754.16;;;11.31;100.00
60589;BME280;46421;48.610;9.334;2022-10-29T01:43:30;98749.50;;;11.25;100.00
60589;BME280;46421;48.610;9.334;2022-10-29T01:46:19;98745.34;;;11.30;100.00
60589;BME280;46421;48.610;9.334;2022-10-29T01:48:53;98740.69;;;11.41;100.00
60589;BME280;46421;48.610;9.334;2022-10-29T01:51:25;98740.53;;;11.59;100.00
60589;BME280;46421;48.610;9.334;2022-10-29T01:53:52;98733.53;;;11.74;100.00
60589;BME280;46421;48.610;9.334;2022-10-29T01:56:18;98731.38;;;12.02;100.00
60589;BME280;46421;48.610;9.334;2022-10-29T01:58:47;98741.88;;;11.96;100.00
60589;BME280;46421;48.610;9.334;2022-10-29T02:10:23;98735.56;;;11.64;100.00
60589;BME280;46421;48.610;9.334;2022-10-29T02:12:52;98728.03;;;11.34;100.00
60589;BME280;46421;48.610;9.334;2022-10-29T02:15:26;98727.53;;;11.22;100.00
60589;BME280;46421;48.610;9.334;2022-10-29T02:17:58;98715.06;;;11.73;100.00
60589;BME280;46421;48.610;9.334;2022-10-29T02:20:24;98710.59;;;11.81;100.00
60589;BME280;46421;48.610;9.334;2022-10-29T02:22:49;98709.91;;;12.04;100.00
60589;BME280;46421;48.610;9.334;2022-10-29T02:25:15;98715.56;;;11.60;100.00
60589;BME280;46421;48.610;9.334;2022-10-29T02:27:40;98707.91;;;11.23;100.00
60589;BME280;46421;48.610;9.334;2022-10-29T02:30:06;98708.03;;;10.97;100.00
60589;BME280;46421;48.610;9.334;2022-10-29T02:32:31;98713.31;;;10.89;100.00
60589;BME280;46421;48.610;9.334;2022-10-29T02:34:59;98717.28;;;10.85;100.00
60589;BME280;46421;48.610;9.334;2022-10-29T02:37:24;98717.22;;;11.44;100.00
60589;BME280;46421;48.610;9.334;2022-10-29T02:39:49;98714.91;;;11.49;100.00
60589;BME280;46421;48.610;9.334;2022-10-29T02:42:15;98709.91;;;11.63;100.00
60589;BME280;46421;48.610;9.334;2022-10-29T02:44:40;98712.59;;;11.63;100.00
60589;BME280;46421;48.610;9.334;2022-10-29T02:47:06;98704.78;;;11.45;100.00
60589;BME280;46421;48.610;9.334;2022-10-29T02:49:31;98703.72;;;11.87;100.00
60589;BME280;46421;48.610;9.334;2022-10-29T02:51:56;98706.25;;;11.72;100.00
60589;BME280;46421;48.610;9.334;2022-10-29T02:54:21;98705.75;;;11.35;100.00
60589;BME280;46421;48.610;9.334;2022-10-29T02:56:47;98696.56;;;11.13;100.00
60589;BME280;46421;48.610;9.334;2022-10-29T02:59:12;98698.69;;;10.93;100.00
60589;BME280;46421;48.610;9.334;2022-10-29T03:01:38;98695.41;;;11.07;100.00
60589;BME280;46421;48.610;9.334;2022-10-29T03:04:03;98692.25;;;11.20;100.00
60589;BME280;46421;48.610;9.334;2022-10-29T03:06:29;98704.09;;;11.34;100.00
60589;BME280;46421;48.610;9.334;2022-10-29T03:08:54;98699.44;;;11.45;100.00
60589;BME280;46421;48.610;9.334;2022-10-29T03:11:19;98689.97;;;11.42;100.00
60589;BME280;46421;48.610;9.334;2022-10-29T03:13:45;98693.25;;;11.36;100.00
60589;BME280;46421;48.610;9.334;2022-10-29T03:16:10;98695.78;;;11.54;100.00
60589;BME280;46421;48.610;9.334;2022-10-29T03:18:36;98692.63;;;11.50;100.00
60589;BME280;46421;48.610;9.334;2022-10-29T03:21:01;98691.28;;;11.63;100.00
60589;BME280;46421;48.610;9.334;2022-10-29T03:23:26;98687.94;;;11.77;100.00
60589;BME280;46421;48.610;9.334;2022-10-29T03:25:53;98688.28;;;11.58;100.00
60589;BME280;46421;48.610;9.334;2022-10-29T03:28:23;98691.25;;;11.13;100.00
60589;BME280;46421;48.610;9.334;2022-10-29T03:30:49;98695.41;;;11.16;100.00
60589;BME280;46421;48.610;9.334;2022-10-29T03:33:14;98688.59;;;11.21;100.00
60589;BME280;46421;48.610;9.334;2022-10-29T03:35:40;98689.97;;;11.34;100.00
60589;BME280;46421;48.610;9.334;2022-10-29T03:38:05;98686.28;;;11.43;100.00
60589;BME280;46421;48.610;9.334;2022-10-29T03:40:30;98692.28;;;11.53;100.00
60589;BME280;46421;48.610;9.334;2022-10-29T03:42:56;98688.13;;;11.43;100.00
60589;BME280;46421;48.610;9.334;2022-10-29T03:45:21;98696.59;;;11.30;100.00
60589;BME280;46421;48.610;9.334;2022-10-29T03:47:47;98690.13;;;11.57;100.00
60589;BME280;46421;48.610;9.334;2022-10-29T03:50:12;98697.41;;;11.71;100.00
60589;BME280;46421;48.610;9.334;2022-10-29T03:52:37;98701.44;;;11.59;100.00
60589;BME280;46421;48.610;9.334;2022-10-29T03:55:03;98712.75;;;11.53;100.00
60589;BME280;46421;48.610;9.334;2022-10-29T03:57:29;98703.28;;;11.42;100.00
60589;BME280;46421;48.610;9.334;2022-10-29T03:59:54;98698.56;;;11.28;100.00
60589;BME280;46421;48.610;9.334;2022-10-29T04:02:20;98703.91;;;11.19;100.00
60589;BME280;46421;48.610;9.334;2022-10-29T04:04:46;98701.41;;;11.18;100.00
60589;BME280;46421;48.610;9.334;2022-10-29T04:07:11;98703.09;;;11.27;100.00
60589;BME280;46421;48.610;9.334;2022-10-29T04:09:36;98702.59;;;11.40;100.00
60589;BME280;46421;48.610;9.334;2022-10-29T04:12:02;98705.41;;;11.71;100.00
60589;BME280;46421;48.610;9.334;2022-10-29T04:14:27;98702.75;;;11.71;100.00
60589;BME280;46421;48.610;9.334;2022-10-29T04:16:53;98694.94;;;11.53;100.00
60589;BME280;46421;48.610;9.334;2022-10-29T04:19:18;98697.09;;;11.42;100.00
60589;BME280;46421;48.610;9.334;2022-10-29T04:21:43;98697.78;;;11.44;100.00
60589;BME280;46421;48.610;9.334;2022-10-29T04:24:09;98697.59;;;11.37;100.00
60589;BME280;46421;48.610;9.334;2022-10-29T04:26:34;98689.94;;;11.26;100.00
60589;BME280;46421;48.610;9.334;2022-10-29T04:29:00;98691.28;;;11.46;100.00
60589;BME280;46421;48.610;9.334;2022-10-29T04:31:25;98683.59;;;11.68;100.00
60589;BME280;46421;48.610;9.334;2022-10-29T04:33:54;98676.97;;;11.55;100.00
60589;BME280;46421;48.610;9.334;2022-10-29T04:36:19;98689.63;;;11.62;100.00
60589;BME280;46421;48.610;9.334;2022-10-29T04:38:45;98692.28;;;11.70;100.00
60589;BME280;46421;48.610;9.334;2022-10-29T04:41:10;98696.91;;;11.76;100.00
60589;BME280;46421;48.610;9.334;2022-10-29T04:43:35;98693.28;;;11.61;100.00
60589;BME280;46421;48.610;9.334;2022-10-29T04:46:01;98682.78;;;11.34;100.00
60589;BME280;46421;48.610;9.334;2022-10-29T04:48:27;98694.94;;;11.45;100.00
60589;BME280;46421;48.610;9.334;2022-10-29T04:50:53;98700.59;;;11.34;100.00
60589;BME280;46421;48.610;9.334;2022-10-29T04:53:19;98690.59;;;11.28;100.00
60589;BME280;46421;48.610;9.334;2022-10-29T04:55:44;98693.44;;;11.26;100.00
60589;BME280;46421;48.610;9.334;2022-10-29T04:58:18;98681.63;;;11.45;100.00
60589;BME280;46421;48.610;9.334;2022-10-29T05:00:44;98691.09;;;11.39;100.00
60589;BME280;46421;48.610;9.334;2022-10-29T05:03:10;98689.28;;;11.32;100.00
60589;BME280;46421;48.610;9.334;2022-10-29T05:05:36;98686.09;;;11.03;100.00
60589;BME280;46421;48.610;9.334;2022-10-29T05:08:04;98677.53;;;10.75;100.00
60589;BME280;46421;48.610;9.334;2022-10-29T05:10:34;98679.06;;;10.86;100.00
60589;BME280;46421;48.610;9.334;2022-10-29T05:13:01;98675.09;;;10.90;100.00
60589;BME280;46421;48.610;9.334;2022-10-29T05:15:28;98680.94;;;11.02;100.00
60589;BME280;46421;48.610;9.334;2022-10-29T05:17:54;98679.44;;;11.07;100.00
60589;BME280;46421;48.610;9.334;2022-10-29T05:20:20;98680.25;;;10.91;100.00
60589;BME280;46421;48.610;9.334;2022-10-29T05:22:45;98675.63;;;11.02;100.00
60589;BME280;46421;48.610;9.334;2022-10-29T05:25:11;98672.25;;;10.83;100.00
60589;BME280;46421;48.610;9.334;2022-10-29T05:27:36;98673.63;;;11.04;100.00
60589;BME280;46421;48.610;9.334;2022-10-29T05:30:02;98672.59;;;10.97;100.00
60589;BME280;46421;48.610;9.334;2022-10-29T05:32:27;98677.94;;;11.21;100.00
60589;BME280;46421;48.610;9.334;2022-10-29T05:34:53;98674.47;;;11.13;100.00
60589;BME280;46421;48.610;9.334;2022-10-29T05:37:18;98672.09;;;10.93;100.00
60589;BME280;46421;48.610;9.334;2022-10-29T05:39:44;98674.84;;;10.67;100.00
60589;BME280;46421;48.610;9.334;2022-10-29T05:42:09;98683.13;;;10.55;100.00
60589;BME280;46421;48.610;9.334;2022-10-29T05:44:35;98684.22;;;10.87;100.00
60589;BME280;46421;48.610;9.334;2022-10-29T05:47:00;98687.91;;;10.95;100.00
60589;BME280;46421;48.610;9.334;2022-10-29T05:49:26;98697.44;;;11.30;100.00
60589;BME280;46421;48.610;9.334;2022-10-29T05:51:51;98685.22;;;10.86;100.00
60589;BME280;46421;48.610;9.334;2022-10-29T05:54:17;98689.13;;;10.66;100.00
60589;BME280;46421;48.610;9.334;2022-10-29T05:56:42;98699.25;;;10.62;100.00
60589;BME280;46421;48.610;9.334;2022-10-29T05:59:08;98692.41;;;10.51;100.00
60589;BME280;46421;48.610;9.334;2022-10-29T06:01:33;98686.06;;;10.44;100.00
60589;BME280;46421;48.610;9.334;2022-10-29T06:03:58;98683.41;;;10.44;100.00
60589;BME280;46421;48.610;9.334;2022-10-29T06:06:25;98684.81;;;10.56;100.00
60589;BME280;46421;48.610;9.334;2022-10-29T06:08:51;98685.81;;;10.64;100.00
60589;BME280;46421;48.610;9.334;2022-10-29T06:11:16;98680.38;;;10.73;100.00
60589;BME280;46421;48.610;9.334;2022-10-29T06:13:41;98688.53;;;10.80;100.00
60589;BME280;46421;48.610;9.334;2022-10-29T06:16:07;98688.16;;;10.75;100.00
60589;BME280;46421;48.610;9.334;2022-10-29T06:18:32;98693.28;;;10.60;100.00
60589;BME280;46421;48.610;9.334;2022-10-29T06:20:58;98691.25;;;10.54;100.00
60589;BME280;46421;48.610;9.334;2022-10-29T06:23:24;98698.13;;;10.65;100.00
60589;BME280;46421;48.610;9.334;2022-10-29T06:25:50;98701.03;;;10.96;100.00
60589;BME280;46421;48.610;9.334;2022-10-29T06:28:15;98699.22;;;11.13;100.00
60589;BME280;46421;48.610;9.334;2022-10-29T06:30:48;98696.22;;;11.00;100.00
60589;BME280;46421;48.610;9.334;2022-10-29T06:33:14;98704.22;;;11.08;100.00
60589;BME280;46421;48.610;9.334;2022-10-29T06:35:40;98707.88;;;11.15;100.00
60589;BME280;46421;48.610;9.334;2022-10-29T06:38:06;98706.56;;;11.36;100.00
60589;BME280;46421;48.610;9.334;2022-10-29T06:40:31;98700.44;;;11.44;100.00
60589;BME280;46421;48.610;9.334;2022-10-29T06:43:01;98705.94;;;11.34;100.00
60589;BME280;46421;48.610;9.334;2022-10-29T06:45:28;98711.06;;;11.35;100.00
60589;BME280;46421;48.610;9.334;2022-10-29T06:47:53;98708.75;;;11.41;100.00
60589;BME280;46421;48.610;9.334;2022-10-29T06:50:19;98707.56;;;11.51;100.00
60589;BME280;46421;48.610;9.334;2022-10-29T06:52:55;98704.09;;;11.84;100.00
60589;BME280;46421;48.610;9.334;2022-10-29T06:55:21;98703.91;;;12.10;99.28
60589;BME280;46421;48.610;9.334;2022-10-29T06:57:47;98707.47;;;12.51;98.32
60589;BME280;46421;48.610;9.334;2022-10-29T07:00:12;98708.97;;;13.16;94.01
60589;BME280;46421;48.610;9.334;2022-10-29T07:02:38;98707.13;;;13.63;88.72
60589;BME280;46421;48.610;9.334;2022-10-29T07:05:03;98701.03;;;14.07;86.87
60589;BME280;46421;48.610;9.334;2022-10-29T07:07:29;98709.34;;;14.73;81.82
60589;BME280;46421;48.610;9.334;2022-10-29T07:09:54;98701.81;;;15.34;77.69
60589;BME280;46421;48.610;9.334;2022-10-29T07:12:19;98699.59;;;15.88;74.60
60589;BME280;46421;48.610;9.334;2022-10-29T07:14:45;98709.63;;;16.85;70.62
60589;BME280;46421;48.610;9.334;2022-10-29T07:17:10;98707.81;;;17.67;66.35
60589;BME280;46421;48.610;9.334;2022-10-29T07:19:35;98709.66;;;18.07;64.29
60589;BME280;46421;48.610;9.334;2022-10-29T07:22:01;98714.28;;;18.65;62.10
60589;BME280;46421;48.610;9.334;2022-10-29T07:24:26;98715.28;;;18.78;59.69
60589;BME280;46421;48.610;9.334;2022-10-29T07:26:51;98711.69;;;19.36;57.86
60589;BME280;46421;48.610;9.334;2022-10-29T07:29:17;98718.50;;;19.07;58.77
60589;BME280;46421;48.610;9.334;2022-10-29T07:31:42;98714.22;;;18.27;62.00
60589;BME280;46421;48.610;9.334;2022-10-29T07:34:07;98715.47;;;18.17;62.89
60589;BME280;46421;48.610;9.334;2022-10-29T07:36:33;98710.78;;;18.58;62.20
60589;BME280;46421;48.610;9.334;2022-10-29T07:38:58;98712.28;;;19.70;57.65
60589;BME280;46421;48.610;9.334;2022-10-29T07:41:24;98715.19;;;20.45;55.43
60589;BME280;46421;48.610;9.334;2022-10-29T07:43:50;98713.19;;;21.08;54.08
60589;BME280;46421;48.610;9.334;2022-10-29T07:46:15;98712.13;;;21.82;51.82
60589;BME280;46421;48.610;9.334;2022-10-29T07:48:41;98715.31;;;22.38;50.35
60589;BME280;46421;48.610;9.334;2022-10-29T07:51:06;98719.59;;;22.86;48.41
60589;BME280;46421;48.610;9.334;2022-10-29T07:53:31;98730.28;;;23.34;48.61
60589;BME280;46421;48.610;9.334;2022-10-29T07:55:57;98726.31;;;23.71;47.33
60589;BME280;46421;48.610;9.334;2022-10-29T07:58:23;98738.09;;;23.76;46.77
60589;BME280;46421;48.610;9.334;2022-10-29T08:00:48;98741.19;;;24.36;45.89
60589;BME280;46421;48.610;9.334;2022-10-29T08:03:13;98732.56;;;24.61;44.63
60589;BME280;46421;48.610;9.334;2022-10-29T08:05:39;98734.28;;;24.45;45.14
60589;BME280;46421;48.610;9.334;2022-10-29T08:08:06;98740.06;;;24.15;45.66
60589;BME280;46421;48.610;9.334;2022-10-29T08:10:33;98739.66;;;24.62;44.85
60589;BME280;46421;48.610;9.334;2022-10-29T08:13:01;98730.72;;;25.06;43.86
60589;BME280;46421;48.610;9.334;2022-10-29T08:15:30;98735.97;;;24.12;46.15
60589;BME280;46421;48.610;9.334;2022-10-29T08:17:56;98732.47;;;24.51;43.93
60589;BME280;46421;48.610;9.334;2022-10-29T08:20:23;98730.09;;;24.77;44.87
60589;BME280;46421;48.610;9.334;2022-10-29T08:22:49;98736.97;;;23.14;46.86
60589;BME280;46421;48.610;9.334;2022-10-29T08:25:15;98728.41;;;23.97;46.89
60589;BME280;46421;48.610;9.334;2022-10-29T08:27:41;98737.94;;;24.17;45.31
60589;BME280;46421;48.610;9.334;2022-10-29T08:30:08;98735.41;;;24.50;46.25
60589;BME280;46421;48.610;9.334;2022-10-29T08:32:34;98724.53;;;25.38;42.22
60589;BME280;46421;48.610;9.334;2022-10-29T08:35:00;98730.31;;;25.75;41.04
60589;BME280;46421;48.610;9.334;2022-10-29T08:37:26;98725.84;;;25.36;43.71
60589;BME280;46421;48.610;9.334;2022-10-29T08:39:51;98732.06;;;25.31;43.09
60589;BME280;46421;48.610;9.334;2022-10-29T08:42:39;98719.56;;;25.57;43.28
60589;BME280;46421;48.610;9.334;2022-10-29T08:45:36;98721.94;;;27.36;40.65
60589;BME280;46421;48.610;9.334;2022-10-29T08:53:46;98723.88;;;28.28;37.84
60589;BME280;46421;48.610;9.334;2022-10-29T08:56:25;98727.44;;;27.56;39.22
60589;BME280;46421;48.610;9.334;2022-10-29T08:58:56;98727.94;;;28.41;37.84
60589;BME280;46421;48.610;9.334;2022-10-29T09:01:23;98730.41;;;28.37;37.85
60589;BME280;46421;48.610;9.334;2022-10-29T09:03:49;98729.34;;;29.09;37.59
60589;BME280;46421;48.610;9.334;2022-10-29T09:20:02;98722.22;;;30.22;34.97
60589;BME280;46421;48.610;9.334;2022-10-29T09:22:48;98713.59;;;30.10;34.70
60589;BME280;46421;48.610;9.334;2022-10-29T09:31:20;98705.94;;;30.60;34.47
60589;BME280;46421;48.610;9.334;2022-10-29T09:33:50;98703.84;;;30.96;34.43
60589;BME280;46421;48.610;9.334;2022-10-29T09:36:17;98702.38;;;30.60;34.80
60589;BME280;46421;48.610;9.334;2022-10-29T09:38:57;98697.28;;;30.72;34.12
60589;BME280;46421;48.610;9.334;2022-10-29T09:41:27;98698.44;;;31.67;32.31
60589;BME280;46421;48.610;9.334;2022-10-29T09:44:06;98701.22;;;30.85;34.12
60589;BME280;46421;48.610;9.334;2022-10-29T09:46:51;98695.53;;;29.74;34.88
60589;BME280;46421;48.610;9.334;2022-10-29T09:49:47;98696.44;;;30.23;34.17
60589;BME280;46421;48.610;9.334;2022-10-29T09:52:18;98694.97;;;30.80;35.90
60589;BME280;46421;48.610;9.334;2022-10-29T09:54:47;98691.09;;;30.62;35.46
60589;BME280;46421;48.610;9.334;2022-10-29T09:57:22;98690.72;;;30.20;34.58
60589;BME280;46421;48.610;9.334;2022-10-29T09:59:52;98686.13;;;30.39;35.17
60589;BME280;46421;48.610;9.334;2022-10-29T10:02:30;98683.75;;;31.38;34.16
60589;BME280;46421;48.610;9.334;2022-10-29T10:05:03;98687.97;;;32.16;31.93
60589;BME280;46421;48.610;9.334;2022-10-29T10:07:28;98674.66;;;32.79;32.59
60589;BME280;46421;48.610;9.334;2022-10-29T10:12:23;98667.97;;;32.94;31.50
60589;BME280;46421;48.610;9.334;2022-10-29T10:15:34;98667.22;;;32.52;31.42
60589;BME280;46421;48.610;9.334;2022-10-29T10:18:15;98673.66;;;33.11;30.00
60589;BME280;46421;48.610;9.334;2022-10-29T10:20:44;98669.84;;;32.71;29.89
60589;BME280;46421;48.610;9.334;2022-10-29T10:23:21;98661.56;;;32.99;28.94
60589;BME280;46421;48.610;9.334;2022-10-29T10:25:47;98665.88;;;33.28;29.25
60589;BME280;46421;48.610;9.334;2022-10-29T10:28:27;98667.69;;;32.95;31.63
60589;BME280;46421;48.610;9.334;2022-10-29T10:33:28;98661.13;;;33.05;31.18
60589;BME280;46421;48.610;9.334;2022-10-29T10:35:54;98654.78;;;32.54;31.77
60589;BME280;46421;48.610;9.334;2022-10-29T10:38:20;98651.25;;;31.79;32.06
60589;BME280;46421;48.610;9.334;2022-10-29T10:41:06;98659.88;;;32.61;33.66
60589;BME280;46421;48.610;9.334;2022-10-29T10:43:33;98644.69;;;32.36;31.20
60589;BME280;46421;48.610;9.334;2022-10-29T10:46:03;98643.00;;;31.46;31.57
60589;BME280;46421;48.610;9.334;2022-10-29T10:48:29;98638.09;;;32.37;32.30
60589;BME280;46421;48.610;9.334;2022-10-29T10:51:15;98640.84;;;32.37;33.27
60589;BME280;46421;48.610;9.334;2022-10-29T10:53:43;98634.84;;;32.99;32.08
60589;BME280;46421;48.610;9.334;2022-10-29T10:56:17;98631.41;;;33.16;30.27
60589;BME280;46421;48.610;9.334;2022-10-29T10:58:55;98629.25;;;32.90;31.37
60589;BME280;46421;48.610;9.334;2022-10-29T11:01:28;98627.47;;;32.02;32.60
60589;BME280;46421;48.610;9.334;2022-10-29T11:04:13;98622.63;;;30.32;37.29
60589;BME280;46421;48.610;9.334;2022-10-29T11:06:45;98622.50;;;30.18;36.34
60589;BME280;46421;48.610;9.334;2022-10-29T11:09:28;98624.09;;;30.43;36.16
60589;BME280;46421;48.610;9.334;2022-10-29T11:12:14;98618.53;;;31.30;34.73
60589;BME280;46421;48.610;9.334;2022-10-29T11:14:58;98613.34;;;30.90;34.58
60589;BME280;46421;48.610;9.334;2022-10-29T11:17:31;98611.19;;;30.68;34.89
60589;BME280;46421;48.610;9.334;2022-10-29T11:20:06;98611.75;;;30.22;35.91
60589;BME280;46421;48.610;9.334;2022-10-29T11:23:12;98605.03;;;30.77;34.32
60589;BME280;46421;48.610;9.334;2022-10-29T11:26:14;98606.38;;;30.98;36.35
60589;BME280;46421;48.610;9.334;2022-10-29T11:28:59;98608.31;;;31.17;34.50
60589;BME280;46421;48.610;9.334;2022-10-29T11:31:35;98604.91;;;31.25;34.70
60589;BME280;46421;48.610;9.334;2022-10-29T11:34:19;98606.34;;;31.36;35.02
60589;BME280;46421;48.610;9.334;2022-10-29T11:36:54;98597.31;;;31.83;34.99
60589;BME280;46421;48.610;9.334;2022-10-29T11:39:26;98592.13;;;31.48;34.09
60589;BME280;46421;48.610;9.334;2022-10-29T11:41:59;98592.25;;;31.57;35.21
60589;BME280;46421;48.610;9.334;2022-10-29T11:44:26;98588.78;;;31.18;34.24
60589;BME280;46421;48.610;9.334;2022-10-29T11:47:26;98586.25;;;31.55;34.99
60589;BME280;46421;48.610;9.334;2022-10-29T11:50:00;98583.78;;;31.53;34.39
60589;BME280;46421;48.610;9.334;2022-10-29T11:52:43;98577.25;;;30.40;36.70
60589;BME280;46421;48.610;9.334;2022-10-29T11:55:32;98574.66;;;31.58;34.40
60589;BME280;46421;48.610;9.334;2022-10-29T11:58:16;98562.41;;;31.36;34.57
60589;BME280;46421;48.610;9.334;2022-10-29T12:00:59;98569.53;;;30.23;34.75
60589;BME280;46421;48.610;9.334;2022-10-29T12:03:45;98570.94;;;30.83;35.52
60589;BME280;46421;48.610;9.334;2022-10-29T12:10:13;98556.69;;;30.62;34.24
60589;BME280;46421;48.610;9.334;2022-10-29T12:15:30;98547.56;;;30.04;36.70
60589;BME280;46421;48.610;9.334;2022-10-29T12:18:16;98538.44;;;30.90;35.56
60589;BME280;46421;48.610;9.334;2022-10-29T12:37:01;98514.78;;;29.69;37.87
60589;BME280;46421;48.610;9.334;2022-10-29T12:39:34;98513.00;;;29.25;39.51
60589;BME280;46421;48.610;9.334;2022-10-29T12:42:26;98508.06;;;29.80;36.62
60589;BME280;46421;48.610;9.334;2022-10-29T12:45:16;98508.47;;;29.44;37.05
60589;BME280;46421;48.610;9.334;2022-10-29T12:50:57;98498.94;;;28.28;41.61
60589;BME280;46421;48.610;9.334;2022-10-29T12:53:48;98500.00;;;27.61;42.42
60589;BME280;46421;48.610;9.334;2022-10-29T12:56:20;98494.28;;;27.57;41.85
60589;BME280;46421;48.610;9.334;2022-10-29T12:58:52;98496.19;;;27.41;42.27
60589;BME280;46421;48.610;9.334;2022-10-29T13:09:18;98484.47;;;25.31;50.85
60589;BME280;46421;48.610;9.334;2022-10-29T13:11:50;98483.81;;;25.14;51.47
60589;BME280;46421;48.610;9.334;2022-10-29T13:14:20;98477.25;;;25.47;47.39
60589;BME280;46421;48.610;9.334;2022-10-29T13:16:48;98484.47;;;25.69;45.21
60589;BME280;46421;48.610;9.334;2022-10-29T13:19:23;98473.41;;;26.07;44.97
60589;BME280;46421;48.610;9.334;2022-10-29T13:21:55;98477.91;;;26.33;47.26
60589;BME280;46421;48.610;9.334;2022-10-29T13:24:21;98478.38;;;26.15;47.62
60589;BME280;46421;48.610;9.334;2022-10-29T13:29:45;98470.66;;;25.91;45.55
60589;BME280;46421;48.610;9.334;2022-10-29T13:32:30;98470.56;;;25.70;45.46
60589;BME280;46421;48.610;9.334;2022-10-29T13:34:58;98462.03;;;25.51;45.63
60589;BME280;46421;48.610;9.334;2022-10-29T13:37:53;98467.06;;;25.27;51.41
60589;BME280;46421;48.610;9.334;2022-10-29T13:42:57;98468.41;;;24.87;49.41
60589;BME280;46421;48.610;9.334;2022-10-29T13:45:25;98460.34;;;24.70;49.94
60589;BME280;46421;48.610;9.334;2022-10-29T13:47:50;98458.63;;;24.58;52.53
60589;BME280;46421;48.610;9.334;2022-10-29T13:50:17;98464.22;;;24.46;53.40
60589;BME280;46421;48.610;9.334;2022-10-29T13:52:43;98462.47;;;24.35;52.81
60589;BME280;46421;48.610;9.334;2022-10-29T13:55:15;98457.94;;;24.19;54.20
60589;BME280;46421;48.610;9.334;2022-10-29T14:00:20;98454.34;;;23.91;56.15
60589;BME280;46421;48.610;9.334;2022-10-29T14:03:02;98457.78;;;23.81;59.67
60589;BME280;46421;48.610;9.334;2022-10-29T14:05:33;98447.06;;;23.69;59.67
60589;BME280;46421;48.610;9.334;2022-10-29T14:13:18;98441.22;;;23.60;62.67
60589;BME280;46421;48.610;9.334;2022-10-29T14:18:42;98440.28;;;23.49;63.79
60589;BME280;46421;48.610;9.334;2022-10-29T14:21:21;98439.22;;;23.50;65.01
60589;BME280;46421;48.610;9.334;2022-10-29T14:24:08;98439.09;;;23.62;65.70
60589;BME280;46421;48.610;9.334;2022-10-29T14:26:37;98426.41;;;23.68;68.15
60589;BME280;46421;48.610;9.334;2022-10-29T14:29:20;98429.06;;;23.63;67.02
60589;BME280;46421;48.610;9.334;2022-10-29T14:31:47;98434.84;;;23.49;72.08
60589;BME280;46421;48.610;9.334;2022-10-29T14:34:28;98430.38;;;23.38;71.91
60589;BME280;46421;48.610;9.334;2022-10-29T14:36:59;98430.97;;;23.23;74.67
60589;BME280;46421;48.610;9.334;2022-10-29T14:39:33;98427.78;;;23.09;77.32
60589;BME280;46421;48.610;9.334;2022-10-29T14:42:01;98426.47;;;22.95;81.10
60589;BME280;46421;48.610;9.334;2022-10-29T14:44:29;98427.38;;;22.83;81.67
60589;BME280;46421;48.610;9.334;2022-10-29T14:47:02;98421.00;;;22.72;79.43
60589;BME280;46421;48.610;9.334;2022-10-29T14:49:29;98423.28;;;22.47;79.27
60589;BME280;46421;48.610;9.334;2022-10-29T14:51:58;98432.75;;;22.32;82.53